Time;durP1;ratioP1;P1;durP2;ratioP2;P2;SDS_P1;SDS_P2;PMS_P1;PMS_P2;Temp;Humidity;BMP_temperature;BMP_pressure;BME280_temperature;BME280_humidity;BME280_pressure;Samples;Min_cycle;Max_cycle;Signal;HPM_P1;HPM_P2
2023/05/04 00:05:10;;;;;;;1.00;0.50;;;;;;;19.55;42.98;100039.47;20954753;28;20135;-72
2023/05/04 00:15:15;;;;;;;3.05;0.35;;;;;;;20.02;42.92;100124.78;20956272;28;20107;-71
2023/05/04 00:25:16;;;;;;;1.17;0.50;;;;;;;19.88;42.92;100128.53;20974424;28;20048;-71
2023/05/04 00:35:20;;;;;;;1.52;0.68;;;;;;;19.98;43.05;100168.16;20982902;28;20114;-70
2023/05/04 00:45:22;;;;;;;1.38;0.50;;;;;;;19.95;42.92;100174.28;20981202;28;20049;-72
2023/05/04 00:55:23;;;;;;;1.20;0.50;;;;;;;19.97;42.87;100171.19;20979109;28;20052;-71
2023/05/04 01:05:30;;;;;;;11.23;1.45;;;;;;;19.96;42.66;100177.88;20979328;28;20503;-71
2023/05/04 01:15:32;;;;;;;9.90;1.40;;;;;;;20.15;42.59;100205.75;20922024;28;20075;-70
2023/05/04 01:25:45;;;;;;;17.17;1.30;;;;;;;20.17;42.83;100215.44;20954009;28;20044;-70
2023/05/04 01:35:47;;;;;;;10.43;1.15;;;;;;;20.28;42.35;100230.88;20987970;28;20051;-71
2023/05/04 01:45:48;;;;;;;6.90;1.27;;;;;;;20.20;42.59;100209.28;20987548;28;20041;-72
2023/05/04 01:55:50;;;;;;;5.57;1.10;;;;;;;20.33;42.87;100240.28;20942741;28;20399;-72
2023/05/04 02:05:51;;;;;;;5.90;1.13;;;;;;;20.37;43.30;100236.63;20951637;28;20041;-71
2023/05/04 02:15:53;;;;;;;5.97;0.90;;;;;;;20.47;43.32;100246.81;20949283;28;20056;-72
2023/05/04 02:25:57;;;;;;;3.78;1.05;;;;;;;20.53;43.44;100254.00;20977260;28;20032;-72
2023/05/04 02:36:01;;;;;;;2.80;0.70;;;;;;;20.37;43.68;100239.41;20973686;28;20102;-71
2023/05/04 02:46:03;;;;;;;3.45;0.73;;;;;;;20.63;43.42;100256.69;20951029;28;20419;-71
2023/05/04 02:56:05;;;;;;;3.83;1.00;;;;;;;20.68;43.58;100261.34;20957622;28;20051;-72
2023/05/04 03:06:06;;;;;;;1.70;0.73;;;;;;;20.67;43.67;100254.97;20989546;28;20074;-72
2023/05/04 03:16:10;;;;;;;0.93;0.70;;;;;;;20.53;43.88;100229.00;20988737;28;20052;-70
2023/05/04 03:26:12;;;;;;;1.35;0.55;;;;;;;20.59;44.09;100244.50;20961237;28;20060;-71
2023/05/04 03:36:13;;;;;;;2.65;0.68;;;;;;;20.85;43.84;100286.72;20922705;28;20045;-71
2023/05/04 03:46:14;;;;;;;1.27;0.68;;;;;;;20.89;44.17;100292.50;20940976;28;20622;-71
2023/05/04 03:56:16;;;;;;;2.25;0.60;;;;;;;20.92;44.18;100289.97;20945284;28;20040;-71
2023/05/04 04:06:21;;;;;;;5.28;0.70;;;;;;;20.79;44.27;100274.00;21007651;28;20180;-71
2023/05/04 04:16:23;;;;;;;1.45;0.63;;;;;;;20.99;44.15;100306.31;20929287;28;20099;-72
2023/05/04 04:26:24;;;;;;;2.58;0.93;;;;;;;21.02;43.88;100319.59;20923412;28;20045;-71
2023/05/04 04:36:25;;;;;;;1.98;0.88;;;;;;;21.02;43.81;100316.81;20922867;28;20102;-72
2023/05/04 04:46:27;;;;;;;1.55;0.50;;;;;;;21.04;43.49;100329.31;20928421;28;20052;-71
2023/05/04 04:56:28;;;;;;;0.95;0.85;;;;;;;21.05;43.52;100321.81;21004344;28;20058;-71
2023/05/04 05:06:36;;;;;;;1.38;0.85;;;;;;;21.03;43.44;100316.56;21001323;28;20029;-71
2023/05/04 05:16:37;;;;;;;1.45;0.60;;;;;;;20.73;43.64;100289.09;21002237;28;20052;-72
2023/05/04 05:26:41;;;;;;;0.90;0.40;;;;;;;20.90;43.61;100316.44;21002718;28;20028;-71
2023/05/04 05:36:43;;;;;;;1.83;1.02;;;;;;;21.04;43.55;100331.28;20929243;28;20049;-71
2023/05/04 05:46:44;;;;;;;3.13;0.68;;;;;;;21.00;43.42;100350.50;20917092;28;20045;-72
2023/05/04 05:56:46;;;;;;;0.82;0.60;;;;;;;20.90;43.80;100338.69;20878490;28;20071;-71
2023/05/04 06:06:47;;;;;;;0.60;0.50;;;;;;;21.01;43.99;100362.47;20897231;28;20366;-71
2023/05/04 06:16:48;;;;;;;0.43;0.43;;;;;;;20.73;43.88;100317.72;20844499;28;20046;-71
2023/05/04 06:26:50;;;;;;;0.43;0.43;;;;;;;20.99;43.99;100365.56;20884428;28;20049;-71
2023/05/04 06:36:51;;;;;;;0.85;0.50;;;;;;;20.98;43.79;100375.03;20913491;28;20434;-71
2023/05/04 06:47:03;;;;;;;1.10;0.52;;;;;;;20.95;43.84;100383.13;21151548;27;20385;-70
2023/05/04 06:57:04;;;;;;;0.68;0.60;;;;;;;20.88;44.22;100379.84;21080258;28;20044;-72
2023/05/04 07:07:08;;;;;;;1.65;0.50;;;;;;;20.88;43.82;100397.38;21063823;28;20075;-70
2023/05/04 07:17:16;;;;;;;0.60;0.40;;;;;;;20.90;44.07;100419.34;21108566;28;20183;-70
2023/05/04 07:27:17;;;;;;;1.10;0.40;;;;;;;20.67;43.85;100385.63;21080467;28;20051;-71
2023/05/04 07:37:18;;;;;;;0.80;0.50;;;;;;;20.82;43.58;100423.56;21115982;28;20062;-70
2023/05/04 07:47:23;;;;;;;0.60;0.43;;;;;;;20.87;43.43;100439.38;21085689;28;20032;-70
2023/05/04 07:57:24;;;;;;;0.43;0.40;;;;;;;20.87;43.86;100461.63;21037463;28;20044;-70
2023/05/04 08:07:25;;;;;;;0.45;0.30;;;;;;;20.71;43.33;100438.69;21034704;28;20074;-70
2023/05/04 08:17:28;;;;;;;0.40;0.40;;;;;;;20.77;43.45;100463.38;21038722;28;20040;-70
2023/05/04 08:27:29;;;;;;;0.32;0.32;;;;;;;20.83;43.30;100471.69;21035778;28;20041;-71
2023/05/04 08:37:34;;;;;;;0.73;0.43;;;;;;;20.77;43.29;100482.84;21005409;28;20098;-71
2023/05/04 08:47:35;;;;;;;0.30;0.30;;;;;;;20.56;43.40;100456.31;20918576;28;20045;-70
2023/05/04 08:57:38;;;;;;;1.02;0.55;;;;;;;20.36;43.30;100445.34;20918252;28;20087;-71
2023/05/04 09:07:39;;;;;;;0.30;0.30;;;;;;;20.76;43.15;100525.69;20916460;28;20041;-70
2023/05/04 09:17:42;;;;;;;0.73;0.40;;;;;;;20.49;43.07;100503.09;20916201;28;20071;-70
2023/05/04 09:27:52;;;;;;;0.70;0.30;;;;;;;20.72;42.86;100559.91;20940253;28;20385;-69
2023/05/04 09:37:53;;;;;;;0.47;0.40;;;;;;;20.68;43.24;100575.50;21080465;28;20040;-71
2023/05/04 09:47:56;;;;;;;0.30;0.30;;;;;;;20.65;43.08;100588.03;21079037;28;20074;-72
2023/05/04 09:58:00;;;;;;;0.43;0.30;;;;;;;20.67;42.95;100618.34;21079340;28;20093;-71
2023/05/04 10:08:02;;;;;;;1.30;0.30;;;;;;;20.65;43.02;100640.84;21078588;28;20036;-70
2023/05/04 10:18:35;;;;;;;1.30;0.30;;;;;;;20.58;42.81;100668.16;21078270;28;20475;-70
2023/05/04 10:28:39;;;;;;;1.15;0.60;;;;;;;20.62;42.77;100688.72;21057397;28;20048;-70
2023/05/04 10:38:41;;;;;;;0.30;0.30;;;;;;;20.55;42.48;100702.06;20994089;28;20561;-70
2023/05/04 10:48:42;;;;;;;0.40;0.40;;;;;;;20.60;42.49;100717.91;21017073;28;20048;-71
2023/05/04 10:58:43;;;;;;;1.45;0.40;;;;;;;20.58;42.58;100757.09;20996141;28;20102;-71
2023/05/04 11:08:48;;;;;;;0.40;0.40;;;;;;;20.49;42.71;100767.16;20995734;28;20040;-71
2023/05/04 11:18:50;;;;;;;2.03;0.30;;;;;;;20.51;42.63;100776.03;21024032;28;20545;-70
2023/05/04 11:28:52;;;;;;;0.30;0.25;;;;;;;20.55;42.57;100799.38;21036080;28;20036;-70
2023/05/04 11:38:58;;;;;;;1.38;0.35;;;;;;;20.52;42.60;100805.47;21008862;28;20048;-70
2023/05/04 11:49:04;;;;;;;0.40;0.30;;;;;;;20.39;42.65;100797.69;21023942;28;20040;-70
2023/05/04 11:59:09;;;;;;;0.40;0.40;;;;;;;20.60;42.47;100841.06;21060585;28;20121;-70
2023/05/04 12:09:11;;;;;;;0.45;0.40;;;;;;;20.63;42.42;100837.72;21034944;28;20130;-71
2023/05/04 12:19:12;;;;;;;0.45;0.38;;;;;;;20.69;42.23;100855.22;21028352;28;20439;-70
2023/05/04 12:29:13;;;;;;;1.05;0.38;;;;;;;20.77;41.91;100888.03;21065281;28;20045;-71
2023/05/04 12:39:15;;;;;;;0.88;0.30;;;;;;;20.31;42.31;100824.13;20999471;28;20552;-71
2023/05/04 12:49:16;;;;;;;0.75;0.43;;;;;;;20.85;41.94;100909.69;21010136;28;20384;-71
2023/05/04 12:59:18;;;;;;;0.55;0.40;;;;;;;20.90;42.40;100909.69;20999322;28;20024;-73
2023/05/04 13:09:19;;;;;;;0.50;0.30;;;;;;;20.87;42.01;100903.84;20987458;28;20090;-71
2023/05/04 13:19:21;;;;;;;0.57;0.38;;;;;;;20.86;41.96;100910.53;20999192;28;20185;-72
2023/05/04 13:29:23;;;;;;;4.38;0.85;;;;;;;20.88;41.97;100902.72;21006102;28;20049;-70
2023/05/04 13:39:38;;;;;;;3.55;0.80;;;;;;;21.13;42.11;100926.88;20999442;28;20048;-71
2023/05/04 13:49:39;;;;;;;5.10;0.77;;;;;;;21.21;42.18;100952.19;20995439;28;20041;-72
2023/05/04 13:59:43;;;;;;;1.90;0.52;;;;;;;21.26;41.88;100960.50;20995184;28;20146;-71
2023/05/04 14:09:44;;;;;;;5.97;0.50;;;;;;;21.26;41.70;100977.22;20993159;28;20037;-71
2023/05/04 14:19:49;;;;;;;1.20;0.50;;;;;;;21.33;41.85;100998.38;20994066;28;20387;-71
2023/05/04 14:29:56;;;;;;;4.15;0.70;;;;;;;21.37;41.81;101010.63;20993657;28;20115;-71
2023/05/04 14:39:58;;;;;;;5.33;0.80;;;;;;;21.40;41.91;101018.41;20992648;28;20041;-71
2023/05/04 14:50:03;;;;;;;3.03;0.60;;;;;;;21.40;41.56;101032.34;20992851;28;20037;-71
2023/05/04 15:00:06;;;;;;;2.80;0.68;;;;;;;21.42;41.61;101058.75;20994297;28;20090;-71
2023/05/04 15:10:12;;;;;;;0.77;0.40;;;;;;;21.42;41.50;101067.09;21008677;28;20472;-71
2023/05/04 15:20:16;;;;;;;0.88;0.40;;;;;;;21.41;41.65;101061.81;21007807;28;20075;-72
2023/05/04 15:30:18;;;;;;;0.93;0.43;;;;;;;21.38;41.63;101054.03;21007222;28;20086;-71
2023/05/04 15:40:19;;;;;;;0.82;0.22;;;;;;;21.49;41.37;101077.97;21006199;28;20110;-71
2023/05/04 15:50:21;;;;;;;1.02;0.40;;;;;;;21.50;41.52;101087.97;21005128;28;20102;-71
2023/05/04 16:00:22;;;;;;;0.70;0.40;;;;;;;21.51;41.48;101089.66;21004449;28;20041;-71
2023/05/04 16:10:24;;;;;;;0.40;0.30;;;;;;;21.51;41.43;101107.19;21003788;28;20498;-71
2023/05/04 16:20:27;;;;;;;1.48;0.45;;;;;;;21.25;41.65;101058.19;21000127;28;20090;-71
2023/05/04 16:30:31;;;;;;;0.73;0.30;;;;;;;21.55;41.32;101122.22;21002423;28;20306;-71
2023/05/04 16:40:33;;;;;;;0.68;0.40;;;;;;;21.55;41.35;101118.59;21001796;28;20101;-71
2023/05/04 16:50:34;;;;;;;1.77;0.40;;;;;;;21.58;41.38;101129.19;21000626;28;20086;-71
2023/05/04 17:00:39;;;;;;;0.40;0.40;;;;;;;21.39;41.32;101116.94;20999490;28;20086;-72
2023/05/04 17:10:40;;;;;;;1.23;0.50;;;;;;;21.57;41.07;101149.78;20998853;28;20434;-71
2023/05/04 17:20:42;;;;;;;0.35;0.20;;;;;;;21.42;41.47;101142.28;20998465;28;20040;-71
2023/05/04 17:30:43;;;;;;;0.63;0.40;;;;;;;21.51;41.24;101162.03;20996779;28;20063;-72
2023/05/04 17:40:45;;;;;;;0.43;0.40;;;;;;;21.46;41.44;101181.53;20996557;28;20045;-71
2023/05/04 17:50:49;;;;;;;1.02;0.50;;;;;;;21.45;41.42;101199.34;20996429;28;20102;-72
2023/05/04 18:00:50;;;;;;;0.40;0.20;;;;;;;21.39;41.14;101203.22;20995416;28;20074;-72
2023/05/04 18:10:51;;;;;;;0.50;0.35;;;;;;;21.33;41.36;101182.91;20994498;28;20037;-71
2023/05/04 18:20:56;;;;;;;0.30;0.28;;;;;;;21.46;41.59;101212.16;20994481;28;20032;-71
2023/05/04 18:30:58;;;;;;;0.32;0.30;;;;;;;21.44;41.33;101217.16;20993507;28;20044;-71
2023/05/04 18:41:03;;;;;;;0.65;0.40;;;;;;;21.44;41.13;101231.06;20993061;28;20098;-71
2023/05/04 18:51:04;;;;;;;0.63;0.35;;;;;;;21.33;41.21;101221.06;20993195;28;20048;-71
2023/05/04 19:01:05;;;;;;;1.75;0.60;;;;;;;21.41;41.29;101226.09;20992744;28;20110;-72
2023/05/04 19:11:07;;;;;;;1.08;0.40;;;;;;;21.39;41.44;101233.84;20992214;28;20036;-71
2023/05/04 19:21:08;;;;;;;0.57;0.40;;;;;;;21.40;41.50;101232.78;20991983;28;20056;-71
2023/05/04 19:31:10;;;;;;;0.30;0.30;;;;;;;21.42;41.21;101236.09;20991060;28;20041;-71
2023/05/04 19:41:12;;;;;;;0.40;0.40;;;;;;;21.38;41.34;101240.53;20992016;28;20467;-71
2023/05/04 19:51:14;;;;;;;0.22;0.22;;;;;;;21.41;41.58;101245.56;21003201;28;20021;-71
2023/05/04 20:01:16;;;;;;;0.30;0.30;;;;;;;21.05;41.50;101187.88;21005070;28;20040;-71
2023/05/04 20:11:18;;;;;;;0.40;0.40;;;;;;;21.41;41.18;101248.34;21004247;28;20082;-71
2023/05/04 20:21:19;;;;;;;0.50;0.30;;;;;;;21.33;41.38;101229.41;20956085;28;20041;-72
2023/05/04 20:31:23;;;;;;;0.40;0.40;;;;;;;21.41;41.40;101251.97;20977516;28;20044;-71
2023/05/04 20:41:27;;;;;;;0.73;0.32;;;;;;;21.41;41.55;101267.84;20986993;28;20102;-72
2023/05/04 20:51:28;;;;;;;0.35;0.30;;;;;;;21.40;41.38;101266.19;20969519;28;20032;-70
2023/05/04 21:01:33;;;;;;;0.60;0.38;;;;;;;21.38;41.40;101291.47;20966170;28;20041;-71
2023/05/04 21:11:37;;;;;;;0.50;0.40;;;;;;;21.40;41.26;101307.94;20936665;28;20048;-70
2023/05/04 21:21:39;;;;;;;9.50;0.65;;;;;;;21.39;41.43;101325.72;20953914;28;20047;-73
2023/05/04 21:31:44;;;;;;;1.95;0.50;;;;;;;21.29;41.46;101321.78;21005536;28;20036;-70
2023/05/04 21:41:45;;;;;;;2.45;0.43;;;;;;;21.34;41.14;101346.03;21044046;28;20094;-71
2023/05/04 21:51:46;;;;;;;2.05;0.82;;;;;;;21.34;41.45;101368.31;21049526;28;20052;-71
2023/05/04 22:01:56;;;;;;;1.30;0.50;;;;;;;21.33;41.40;101376.94;21053231;28;20036;-71
2023/05/04 22:11:58;;;;;;;2.08;0.60;;;;;;;21.31;41.40;101380.00;20954898;28;20041;-71
2023/05/04 22:22:00;;;;;;;2.75;0.47;;;;;;;21.36;41.44;101398.69;20931623;28;20044;-71
2023/05/04 22:32:01;;;;;;;22.48;1.98;;;;;;;21.33;41.84;101390.84;20953636;28;20053;-72
2023/05/04 22:42:03;;;;;;;2.25;0.60;;;;;;;21.28;42.21;101375.78;20948238;28;20041;-71
2023/05/04 22:52:07;;;;;;;4.25;0.63;;;;;;;21.39;41.61;101420.38;20958457;28;20088;-72
2023/05/04 23:02:08;;;;;;;3.20;0.60;;;;;;;21.38;41.72;101430.69;20982062;28;20079;-70
2023/05/04 23:12:11;;;;;;;2.92;0.70;;;;;;;21.35;41.52;101447.09;20924462;28;20033;-72
2023/05/04 23:22:16;;;;;;;2.13;0.50;;;;;;;21.33;41.66;101455.72;20925436;28;20044;-72
2023/05/04 23:32:20;;;;;;;3.05;0.57;;;;;;;21.30;41.92;101454.31;20972369;28;20036;-74
2023/05/04 23:42:21;;;;;;;2.25;0.40;;;;;;;21.27;42.09;101465.13;20961237;28;20045;-73
2023/05/04 23:52:22;;;;;;;1.73;0.52;;;;;;;20.82;42.09;101416.47;20987410;28;20483;-74
